Nearby METAR Reports

 

KOXC - Oxford/Waterbury, Connecticut, USA
Distance from station: SE 8mi, 12km
Updated: Fri, 15-Nov-2019 12:51am EST
Clear
Clear
 Wind from calm
Wind: Calm
Temperature: 34°F , 1°C
Dew Point: 23°F , -5°C
Humidity: 65%
Barometer: 30.24 inHg , 1024 hPa
Clouds: Clear
Visibility: 10 miles , 16 km
2019/11/15 05:51 KOXC 150551Z AUTO 00000KT 10SM CLR 01/M05 A3024 RMK AO2 SLP259 T00061050 10022 20006 58010 FZRANO
KDXR - Danbury, Connecticut, USA
Distance from station: SW 19mi, 30km
Updated: Fri, 15-Nov-2019 12:53am EST
Clear
Clear
 Wind from calm
Wind: Calm
Temperature: 27°F , -3°C
Dew Point: 23°F , -5°C
Humidity: 86%
Barometer: 30.26 inHg , 1024.7 hPa
Clouds: Clear
Visibility: 10 miles , 16 km
2019/11/15 05:53 KDXR 150553Z AUTO 00000KT 10SM CLR M03/M05 A3026 RMK AO2 SLP249 T10281050 10006 21033 58011
 
KMMK - Meriden, Connecticut, USA
Distance from station: E 20mi, 33km
Updated: Fri, 15-Nov-2019 12:53am EST
Clear
Clear
 Wind from calm
Wind: Calm
Temperature: 28°F , -2°C
Dew Point: 27°F , -3°C
Humidity: 93%
Barometer: 30.26 inHg , 1024.7 hPa
Clouds: Clear
Visibility: 9 miles , 14 km
2019/11/15 05:53 KMMK 150553Z AUTO 00000KT 9SM CLR M02/M03 A3026 RMK AO2 SLP248 T10221033 10006 21022 58010 $
KBDR - Bridgeport, Connecticut, USA
Distance from station: S 27mi, 44km
Updated: Fri, 15-Nov-2019 12:52am EST
Clear
Clear
 Wind from W
Wind: W 5 mph , 7 km/h
Temperature: 41°F , 5°C
Wind Chill: 38°F , 3°C
Dew Point: 25°F , -4°C
Humidity: 53%
Barometer: 30.27 inHg , 1025.1 hPa
Clouds: Clear
Visibility: 10 miles , 16 km
2019/11/15 05:52 KBDR 150552Z AUTO 26004KT 10SM CLR 05/M04 A3027 RMK AO2 SLP249 T00501039 10078 20044 58008
 
KHVN - New Haven/Tweed, Connecticut, USA
Distance from station: SE 27mi, 44km
Updated: Fri, 15-Nov-2019 12:53am EST
Clear
Clear
 Wind from varies
Wind: varies 5 mph , 7 km/h
Temperature: 45°F , 7°C
Wind Chill: 42°F , 6°C
Dew Point: 27°F , -3°C
Humidity: 49%
Barometer: 30.26 inHg , 1024.7 hPa
Clouds: Clear
Visibility: 10 miles , 16 km
2019/11/15 05:53 KHVN 150553Z AUTO VRB04KT 10SM CLR 07/M03 A3026 RMK AO2 SLP248 T00671028 10094 20061 58008
KHFD - Hartford/Brainar, Connecticut, USA
Distance from station: ENE 32mi, 52km
Updated: Fri, 15-Nov-2019 12:53am EST
Clear
Clear
 Wind from calm
Wind: Calm
Temperature: 28°F , -2°C
Dew Point: 23°F , -5°C
Humidity: 80%
Barometer: 30.26 inHg , 1024.7 hPa
Clouds: Clear
Visibility: 10 miles , 16 km
2019/11/15 05:53 KHFD 150553Z AUTO 00000KT 10SM CLR M02/M05 A3026 RMK AO2 SLP246 T10171050 10017 21022 58009
 
KPOU - Poughkeepsie, New York, USA
Distance from station: W 35mi, 56km
Updated: Fri, 15-Nov-2019 12:53am EST
Clear
Clear
 Wind from calm
Wind: Calm
Temperature: 25°F , -4°C
Dew Point: 19°F , -7°C
Humidity: 80%
Barometer: 30.25 inHg , 1024.4 hPa
Clouds: Clear
Visibility: 10 miles , 16 km
2019/11/15 05:53 KPOU 150553Z AUTO 00000KT 10SM CLR M04/M07 A3025 RMK AO2 SLP242 T10391067 10006 21044 58013
KBDL - Windsor Locks, Connecticut, USA
Distance from station: NE 38mi, 62km
Updated: Fri, 15-Nov-2019 12:51am EST
Partly cloudy
Partly cloudy
 Wind from S
Wind: S 6 mph , 9 km/h
Temperature: 30°F , -1°C
Wind Chill: 24°F , -4°C
Dew Point: 21°F , -6°C
Humidity: 69%
Barometer: 30.25 inHg , 1024.4 hPa
Clouds: Partly cloudy
Visibility: 10 miles , 16 km
Cloud details: Few Clouds 12000 ft
Partly cloudy 25000 ft
2019/11/15 05:51 KBDL 150551Z 18005KT 10SM FEW120 SCT250 M01/M06 A3025 RMK AO2 SLP244 T10111056 10011 21017 58010
 
KSNC - Chester, Connecticut, USA
Distance from station: ESE 39mi, 63km
Updated: Fri, 15-Nov-2019 1:15am EST
Clear
Clear
 Wind from calm
Wind: Calm
Temperature: 37°F , 3°C
Dew Point: 25°F , -4°C
Humidity: 60%
Barometer: 30.24 inHg , 1024 hPa
Clouds: Clear
Visibility: 10 miles , 16 km
2019/11/15 06:15 KSNC 150615Z AUTO 00000KT 10SM CLR 03/M04 A3024 RMK AO2
KHPN - White Plains, New York, USA
Distance from station: SW 42mi, 67km
Updated: Fri, 15-Nov-2019 12:56am EST
Clear
Clear
 Wind from WSW
Wind: WSW 3 mph , 6 km/h
Temperature: 36°F , 2°C
Dew Point: 21°F , -6°C
Humidity: 56%
Barometer: 30.24 inHg , 1024 hPa
Clouds: Clear
Visibility: 10 miles , 16 km
2019/11/15 05:56 KHPN 150556Z 25003KT 10SM CLR 02/M06 A3024 RMK AO2 SLP248 T00221061 10050 20022 58011
 
KSWF - Newburgh/Stewart, New York, USA
Distance from station: W 45mi, 72km
Updated: Fri, 15-Nov-2019 12:45am EST
Clear
Clear
 Wind from calm
Wind: Calm
Temperature: 27°F , -3°C
Dew Point: 23°F , -5°C
Humidity: 86%
Barometer: 30.25 inHg , 1024.4 hPa
Clouds: Clear
Visibility: 10 miles , 16 km
2019/11/15 05:45 KSWF 150545Z 00000KT 10SM SKC M03/M05 A3025
KBAF - Westfield, Massachusetts, USA
Distance from station: NNE 50mi, 80km
Updated: Fri, 15-Nov-2019 12:53am EST
Mostly cloudy
Mostly cloudy
 Wind from S
Wind: S 6 mph , 9 km/h
Temperature: 25°F , -4°C
Wind Chill: 18°F , -8°C
Dew Point: 19°F , -7°C
Humidity: 80%
Barometer: 30.23 inHg , 1023.7 hPa
Clouds: Mostly cloudy
Visibility: 10 miles , 16 km
Cloud details: Mostly cloudy 11000 ft
2019/11/15 05:53 KBAF 150553Z AUTO 17005KT 10SM BKN110 M04/M07 A3023 RMK AO2 SLP245 T10441072 11006 21044 58014